Terminal Aerodrome Forecast
Issued by NWS Portland, OR

Home | Current Version | Previous Version | Text Only | Print | Product List | Glossary On
Versions: 1 2 3 4 5 6 7 8 9 10 11 12 13 14 15 16 17 18 19 20 21 22 23 24 25 26 27 28 29 30 31 32 33 34 35 36 37 38 39 40 41 42 43 44 45 46 47 48 49 50
000
FTUS46 KPQR 231120
TAFPDX
TAF
KPDX 231120Z 2312/2412 19007KT P6SM FEW009 SCT030 BKN060
     FM231800 19009KT 6SM SHRA SCT025 OVC050
     FM232000 30008KT P6SM -SHRA BKN025 OVC050
     FM240000 21005KT P6SM VCSH SCT025 BKN050
     FM240600 18003KT 5SM BR FEW010 BKN030=

USA.gov is the U.S. government's official web portal to all federal, state and local government web resources and services.